sensor_id;sensor_type;location;lat;lon;timestamp;P1;durP1;ratioP1;P2;durP2;ratioP2
55879;SDS011;41802;51.564;-1.838;2023-04-10T00:00:12;34.30;;;12.98;;
55879;SDS011;41802;51.564;-1.838;2023-04-10T00:02:40;33.92;;;11.75;;
55879;SDS011;41802;51.564;-1.838;2023-04-10T00:05:10;30.83;;;11.80;;
55879;SDS011;41802;51.564;-1.838;2023-04-10T00:07:38;30.63;;;11.65;;
55879;SDS011;41802;51.564;-1.838;2023-04-10T00:10:05;34.77;;;11.87;;
55879;SDS011;41802;51.564;-1.838;2023-04-10T00:12:34;31.58;;;11.40;;
55879;SDS011;41802;51.564;-1.838;2023-04-10T00:15:03;29.80;;;10.50;;
55879;SDS011;41802;51.564;-1.838;2023-04-10T00:17:31;29.10;;;10.75;;
55879;SDS011;41802;51.564;-1.838;2023-04-10T00:19:59;32.58;;;11.77;;
55879;SDS011;41802;51.564;-1.838;2023-04-10T00:22:27;29.30;;;11.17;;
55879;SDS011;41802;51.564;-1.838;2023-04-10T00:24:55;31.30;;;11.13;;
55879;SDS011;41802;51.564;-1.838;2023-04-10T00:27:22;27.55;;;11.50;;
55879;SDS011;41802;51.564;-1.838;2023-04-10T00:29:50;27.67;;;10.45;;
55879;SDS011;41802;51.564;-1.838;2023-04-10T00:32:19;29.88;;;11.38;;
55879;SDS011;41802;51.564;-1.838;2023-04-10T00:34:47;28.90;;;10.47;;
55879;SDS011;41802;51.564;-1.838;2023-04-10T00:37:15;29.65;;;11.18;;
55879;SDS011;41802;51.564;-1.838;2023-04-10T00:39:43;26.13;;;10.07;;
55879;SDS011;41802;51.564;-1.838;2023-04-10T00:42:10;30.30;;;10.80;;
55879;SDS011;41802;51.564;-1.838;2023-04-10T00:44:38;27.80;;;10.35;;
55879;SDS011;41802;51.564;-1.838;2023-04-10T00:47:06;31.07;;;10.83;;
55879;SDS011;41802;51.564;-1.838;2023-04-10T00:49:36;32.38;;;12.40;;
55879;SDS011;41802;51.564;-1.838;2023-04-10T00:52:03;28.50;;;11.05;;
55879;SDS011;41802;51.564;-1.838;2023-04-10T00:54:32;32.60;;;11.38;;
55879;SDS011;41802;51.564;-1.838;2023-04-10T00:57:01;25.35;;;10.82;;
55879;SDS011;41802;51.564;-1.838;2023-04-10T00:59:30;27.83;;;10.97;;
55879;SDS011;41802;51.564;-1.838;2023-04-10T01:01:58;30.42;;;10.90;;
55879;SDS011;41802;51.564;-1.838;2023-04-10T01:04:26;26.38;;;9.98;;
55879;SDS011;41802;51.564;-1.838;2023-04-10T01:06:58;28.27;;;11.07;;
55879;SDS011;41802;51.564;-1.838;2023-04-10T01:09:31;25.52;;;9.80;;
55879;SDS011;41802;51.564;-1.838;2023-04-10T01:12:03;26.97;;;10.57;;
55879;SDS011;41802;51.564;-1.838;2023-04-10T01:14:37;23.35;;;9.70;;
55879;SDS011;41802;51.564;-1.838;2023-04-10T01:17:06;24.20;;;9.98;;
55879;SDS011;41802;51.564;-1.838;2023-04-10T01:19:45;23.50;;;9.07;;
55879;SDS011;41802;51.564;-1.838;2023-04-10T01:22:19;24.08;;;10.18;;
55879;SDS011;41802;51.564;-1.838;2023-04-10T01:24:55;28.20;;;10.37;;
55879;SDS011;41802;51.564;-1.838;2023-04-10T01:27:33;23.85;;;9.10;;
55879;SDS011;41802;51.564;-1.838;2023-04-10T01:30:05;26.13;;;9.35;;
55879;SDS011;41802;51.564;-1.838;2023-04-10T01:32:32;24.67;;;9.35;;
55879;SDS011;41802;51.564;-1.838;2023-04-10T01:35:02;24.10;;;9.05;;
55879;SDS011;41802;51.564;-1.838;2023-04-10T01:37:33;24.23;;;9.53;;
55879;SDS011;41802;51.564;-1.838;2023-04-10T01:40:03;22.38;;;8.30;;
55879;SDS011;41802;51.564;-1.838;2023-04-10T01:42:33;21.55;;;8.27;;
55879;SDS011;41802;51.564;-1.838;2023-04-10T01:45:01;21.40;;;8.15;;
55879;SDS011;41802;51.564;-1.838;2023-04-10T01:47:31;22.63;;;7.85;;
55879;SDS011;41802;51.564;-1.838;2023-04-10T01:49:59;18.77;;;6.93;;
55879;SDS011;41802;51.564;-1.838;2023-04-10T01:52:27;19.65;;;8.20;;
55879;SDS011;41802;51.564;-1.838;2023-04-10T01:54:56;19.38;;;7.30;;
55879;SDS011;41802;51.564;-1.838;2023-04-10T01:57:24;19.17;;;7.25;;
55879;SDS011;41802;51.564;-1.838;2023-04-10T01:59:52;18.52;;;6.82;;
55879;SDS011;41802;51.564;-1.838;2023-04-10T02:02:20;17.97;;;7.03;;
55879;SDS011;41802;51.564;-1.838;2023-04-10T02:04:49;21.00;;;8.00;;
55879;SDS011;41802;51.564;-1.838;2023-04-10T02:07:18;15.43;;;6.55;;
55879;SDS011;41802;51.564;-1.838;2023-04-10T02:09:48;19.20;;;7.85;;
55879;SDS011;41802;51.564;-1.838;2023-04-10T02:12:17;20.40;;;6.43;;
55879;SDS011;41802;51.564;-1.838;2023-04-10T02:14:46;20.83;;;7.33;;
55879;SDS011;41802;51.564;-1.838;2023-04-10T02:17:16;19.40;;;6.80;;
55879;SDS011;41802;51.564;-1.838;2023-04-10T02:19:44;17.40;;;7.07;;
55879;SDS011;41802;51.564;-1.838;2023-04-10T02:22:15;16.52;;;6.35;;
55879;SDS011;41802;51.564;-1.838;2023-04-10T02:24:43;14.70;;;5.85;;
55879;SDS011;41802;51.564;-1.838;2023-04-10T02:27:10;15.63;;;5.97;;
55879;SDS011;41802;51.564;-1.838;2023-04-10T02:29:38;16.98;;;6.40;;
55879;SDS011;41802;51.564;-1.838;2023-04-10T02:32:06;14.93;;;6.05;;
55879;SDS011;41802;51.564;-1.838;2023-04-10T02:34:33;14.60;;;5.95;;
55879;SDS011;41802;51.564;-1.838;2023-04-10T02:37:01;14.30;;;5.70;;
55879;SDS011;41802;51.564;-1.838;2023-04-10T02:39:31;14.57;;;5.33;;
55879;SDS011;41802;51.564;-1.838;2023-04-10T02:41:58;14.00;;;5.90;;
55879;SDS011;41802;51.564;-1.838;2023-04-10T02:44:26;14.68;;;5.60;;
55879;SDS011;41802;51.564;-1.838;2023-04-10T02:46:54;15.65;;;5.95;;
55879;SDS011;41802;51.564;-1.838;2023-04-10T02:49:22;11.48;;;4.55;;
55879;SDS011;41802;51.564;-1.838;2023-04-10T02:51:49;15.60;;;5.43;;
55879;SDS011;41802;51.564;-1.838;2023-04-10T02:54:17;10.73;;;4.15;;
55879;SDS011;41802;51.564;-1.838;2023-04-10T02:56:46;12.27;;;4.68;;
55879;SDS011;41802;51.564;-1.838;2023-04-10T02:59:14;14.57;;;4.55;;
55879;SDS011;41802;51.564;-1.838;2023-04-10T03:01:44;10.50;;;4.15;;
55879;SDS011;41802;51.564;-1.838;2023-04-10T03:04:12;10.57;;;4.20;;
55879;SDS011;41802;51.564;-1.838;2023-04-10T03:06:40;12.38;;;4.65;;
55879;SDS011;41802;51.564;-1.838;2023-04-10T03:09:07;9.43;;;4.10;;
55879;SDS011;41802;51.564;-1.838;2023-04-10T03:11:35;12.48;;;4.20;;
55879;SDS011;41802;51.564;-1.838;2023-04-10T03:14:05;9.95;;;4.20;;
55879;SDS011;41802;51.564;-1.838;2023-04-10T03:16:34;10.10;;;4.00;;
55879;SDS011;41802;51.564;-1.838;2023-04-10T03:19:02;12.15;;;3.80;;
55879;SDS011;41802;51.564;-1.838;2023-04-10T03:21:30;8.65;;;3.20;;
55879;SDS011;41802;51.564;-1.838;2023-04-10T03:23:58;10.60;;;3.63;;
55879;SDS011;41802;51.564;-1.838;2023-04-10T03:26:26;8.30;;;2.92;;
55879;SDS011;41802;51.564;-1.838;2023-04-10T03:28:54;8.13;;;3.07;;
55879;SDS011;41802;51.564;-1.838;2023-04-10T03:31:23;8.98;;;3.30;;
55879;SDS011;41802;51.564;-1.838;2023-04-10T03:33:51;8.48;;;2.38;;
55879;SDS011;41802;51.564;-1.838;2023-04-10T03:36:19;8.52;;;2.45;;
55879;SDS011;41802;51.564;-1.838;2023-04-10T03:38:46;7.82;;;1.98;;
55879;SDS011;41802;51.564;-1.838;2023-04-10T03:41:14;6.90;;;2.03;;
55879;SDS011;41802;51.564;-1.838;2023-04-10T03:43:42;6.47;;;2.05;;
55879;SDS011;41802;51.564;-1.838;2023-04-10T03:46:10;7.50;;;1.50;;
55879;SDS011;41802;51.564;-1.838;2023-04-10T03:48:40;6.05;;;1.75;;
55879;SDS011;41802;51.564;-1.838;2023-04-10T03:51:18;5.57;;;1.42;;
55879;SDS011;41802;51.564;-1.838;2023-04-10T03:53:48;4.33;;;1.10;;
55879;SDS011;41802;51.564;-1.838;2023-04-10T03:56:17;4.78;;;1.35;;
55879;SDS011;41802;51.564;-1.838;2023-04-10T03:58:45;5.00;;;1.30;;
55879;SDS011;41802;51.564;-1.838;2023-04-10T04:01:12;4.50;;;1.05;;
55879;SDS011;41802;51.564;-1.838;2023-04-10T04:03:41;4.47;;;0.88;;
55879;SDS011;41802;51.564;-1.838;2023-04-10T04:06:09;3.97;;;0.70;;
55879;SDS011;41802;51.564;-1.838;2023-04-10T04:08:37;5.93;;;1.33;;
55879;SDS011;41802;51.564;-1.838;2023-04-10T04:11:05;4.05;;;0.90;;
55879;SDS011;41802;51.564;-1.838;2023-04-10T04:13:32;4.80;;;0.75;;
55879;SDS011;41802;51.564;-1.838;2023-04-10T04:16:00;4.38;;;0.82;;
55879;SDS011;41802;51.564;-1.838;2023-04-10T04:18:28;3.07;;;0.67;;
55879;SDS011;41802;51.564;-1.838;2023-04-10T04:20:57;3.20;;;0.75;;
55879;SDS011;41802;51.564;-1.838;2023-04-10T04:23:24;3.22;;;0.63;;
55879;SDS011;41802;51.564;-1.838;2023-04-10T04:25:52;4.07;;;0.95;;
55879;SDS011;41802;51.564;-1.838;2023-04-10T04:28:21;3.78;;;0.88;;
55879;SDS011;41802;51.564;-1.838;2023-04-10T04:30:50;2.60;;;0.30;;
55879;SDS011;41802;51.564;-1.838;2023-04-10T04:33:18;3.50;;;0.82;;
55879;SDS011;41802;51.564;-1.838;2023-04-10T04:35:45;3.53;;;0.68;;
55879;SDS011;41802;51.564;-1.838;2023-04-10T04:38:15;2.80;;;0.63;;
55879;SDS011;41802;51.564;-1.838;2023-04-10T04:40:42;3.03;;;0.60;;
55879;SDS011;41802;51.564;-1.838;2023-04-10T04:43:10;4.33;;;0.80;;
55879;SDS011;41802;51.564;-1.838;2023-04-10T04:45:37;4.72;;;1.10;;
55879;SDS011;41802;51.564;-1.838;2023-04-10T04:48:05;4.18;;;1.10;;
55879;SDS011;41802;51.564;-1.838;2023-04-10T04:50:33;4.65;;;1.23;;
55879;SDS011;41802;51.564;-1.838;2023-04-10T04:53:01;4.68;;;1.23;;
55879;SDS011;41802;51.564;-1.838;2023-04-10T04:55:32;5.57;;;0.90;;
55879;SDS011;41802;51.564;-1.838;2023-04-10T04:58:00;4.82;;;1.20;;
55879;SDS011;41802;51.564;-1.838;2023-04-10T05:00:27;4.72;;;1.20;;
55879;SDS011;41802;51.564;-1.838;2023-04-10T05:02:55;4.90;;;1.20;;
55879;SDS011;41802;51.564;-1.838;2023-04-10T05:05:23;4.50;;;0.98;;
55879;SDS011;41802;51.564;-1.838;2023-04-10T05:07:50;4.37;;;0.97;;
55879;SDS011;41802;51.564;-1.838;2023-04-10T05:10:18;4.82;;;1.10;;
55879;SDS011;41802;51.564;-1.838;2023-04-10T05:12:47;5.20;;;1.50;;
55879;SDS011;41802;51.564;-1.838;2023-04-10T05:15:15;5.50;;;1.23;;
55879;SDS011;41802;51.564;-1.838;2023-04-10T05:17:42;6.35;;;1.55;;
55879;SDS011;41802;51.564;-1.838;2023-04-10T05:20:10;4.87;;;1.30;;
55879;SDS011;41802;51.564;-1.838;2023-04-10T05:22:38;5.13;;;1.40;;
55879;SDS011;41802;51.564;-1.838;2023-04-10T05:25:06;5.32;;;1.50;;
55879;SDS011;41802;51.564;-1.838;2023-04-10T05:27:34;5.30;;;1.30;;
55879;SDS011;41802;51.564;-1.838;2023-04-10T05:30:03;6.03;;;1.30;;
55879;SDS011;41802;51.564;-1.838;2023-04-10T05:32:32;5.53;;;1.13;;
55879;SDS011;41802;51.564;-1.838;2023-04-10T05:34:59;5.07;;;1.33;;
55879;SDS011;41802;51.564;-1.838;2023-04-10T05:37:27;6.65;;;1.67;;
55879;SDS011;41802;51.564;-1.838;2023-04-10T05:39:55;6.13;;;1.63;;
55879;SDS011;41802;51.564;-1.838;2023-04-10T05:42:23;5.35;;;1.30;;
55879;SDS011;41802;51.564;-1.838;2023-04-10T05:44:51;5.43;;;1.63;;
55879;SDS011;41802;51.564;-1.838;2023-04-10T05:47:20;5.53;;;1.42;;
55879;SDS011;41802;51.564;-1.838;2023-04-10T05:49:49;4.00;;;1.13;;
55879;SDS011;41802;51.564;-1.838;2023-04-10T05:52:17;4.57;;;1.40;;
55879;SDS011;41802;51.564;-1.838;2023-04-10T05:54:44;4.75;;;1.33;;
55879;SDS011;41802;51.564;-1.838;2023-04-10T05:57:12;3.90;;;1.30;;
55879;SDS011;41802;51.564;-1.838;2023-04-10T05:59:40;6.15;;;1.40;;
55879;SDS011;41802;51.564;-1.838;2023-04-10T06:02:07;4.63;;;1.42;;
55879;SDS011;41802;51.564;-1.838;2023-04-10T06:04:36;5.82;;;1.10;;
55879;SDS011;41802;51.564;-1.838;2023-04-10T06:07:04;4.70;;;1.42;;
55879;SDS011;41802;51.564;-1.838;2023-04-10T06:09:32;5.57;;;1.80;;
55879;SDS011;41802;51.564;-1.838;2023-04-10T06:12:00;5.15;;;1.60;;
55879;SDS011;41802;51.564;-1.838;2023-04-10T06:14:28;5.35;;;1.80;;
55879;SDS011;41802;51.564;-1.838;2023-04-10T06:16:55;5.00;;;1.35;;
55879;SDS011;41802;51.564;-1.838;2023-04-10T06:19:23;6.55;;;1.40;;
55879;SDS011;41802;51.564;-1.838;2023-04-10T06:22:02;7.47;;;1.73;;
55879;SDS011;41802;51.564;-1.838;2023-04-10T06:24:29;4.32;;;1.00;;
55879;SDS011;41802;51.564;-1.838;2023-04-10T06:26:57;5.93;;;1.30;;
55879;SDS011;41802;51.564;-1.838;2023-04-10T06:29:25;4.60;;;1.33;;
55879;SDS011;41802;51.564;-1.838;2023-04-10T06:31:53;4.50;;;1.00;;
55879;SDS011;41802;51.564;-1.838;2023-04-10T06:34:20;4.87;;;1.37;;
55879;SDS011;41802;51.564;-1.838;2023-04-10T06:36:48;4.38;;;1.30;;
55879;SDS011;41802;51.564;-1.838;2023-04-10T06:39:18;4.57;;;0.75;;
55879;SDS011;41802;51.564;-1.838;2023-04-10T06:41:46;4.70;;;1.10;;
55879;SDS011;41802;51.564;-1.838;2023-04-10T06:44:13;3.95;;;0.68;;
55879;SDS011;41802;51.564;-1.838;2023-04-10T06:46:41;3.00;;;0.50;;
55879;SDS011;41802;51.564;-1.838;2023-04-10T06:49:09;3.08;;;0.50;;
55879;SDS011;41802;51.564;-1.838;2023-04-10T06:51:36;4.25;;;0.95;;
55879;SDS011;41802;51.564;-1.838;2023-04-10T06:54:04;3.17;;;0.52;;
55879;SDS011;41802;51.564;-1.838;2023-04-10T06:56:33;3.45;;;0.57;;
55879;SDS011;41802;51.564;-1.838;2023-04-10T06:59:01;2.53;;;0.50;;
55879;SDS011;41802;51.564;-1.838;2023-04-10T07:01:29;2.60;;;0.50;;
55879;SDS011;41802;51.564;-1.838;2023-04-10T07:03:56;2.65;;;0.43;;
55879;SDS011;41802;51.564;-1.838;2023-04-10T07:06:24;2.42;;;0.40;;
55879;SDS011;41802;51.564;-1.838;2023-04-10T07:08:53;2.72;;;0.50;;
55879;SDS011;41802;51.564;-1.838;2023-04-10T07:11:22;2.77;;;0.70;;
55879;SDS011;41802;51.564;-1.838;2023-04-10T07:13:52;2.97;;;0.38;;
55879;SDS011;41802;51.564;-1.838;2023-04-10T07:16:24;3.00;;;0.70;;
55879;SDS011;41802;51.564;-1.838;2023-04-10T07:18:52;2.42;;;0.35;;
55879;SDS011;41802;51.564;-1.838;2023-04-10T07:21:20;2.53;;;0.40;;
55879;SDS011;41802;51.564;-1.838;2023-04-10T07:23:48;1.83;;;0.30;;
55879;SDS011;41802;51.564;-1.838;2023-04-10T07:26:16;3.70;;;0.40;;
55879;SDS011;41802;51.564;-1.838;2023-04-10T07:28:43;1.92;;;0.45;;
55879;SDS011;41802;51.564;-1.838;2023-04-10T07:31:12;2.38;;;0.30;;
55879;SDS011;41802;51.564;-1.838;2023-04-10T07:33:40;1.85;;;0.40;;
55879;SDS011;41802;51.564;-1.838;2023-04-10T07:36:08;1.47;;;0.20;;
55879;SDS011;41802;51.564;-1.838;2023-04-10T07:38:37;1.52;;;0.30;;
55879;SDS011;41802;51.564;-1.838;2023-04-10T07:41:05;1.92;;;0.30;;
55879;SDS011;41802;51.564;-1.838;2023-04-10T07:43:33;3.00;;;0.20;;
55879;SDS011;41802;51.564;-1.838;2023-04-10T07:46:00;2.75;;;0.38;;
55879;SDS011;41802;51.564;-1.838;2023-04-10T07:48:29;2.63;;;0.60;;
55879;SDS011;41802;51.564;-1.838;2023-04-10T07:50:57;3.17;;;0.40;;
55879;SDS011;41802;51.564;-1.838;2023-04-10T07:53:25;2.47;;;0.30;;
55879;SDS011;41802;51.564;-1.838;2023-04-10T07:55:52;1.52;;;0.30;;
55879;SDS011;41802;51.564;-1.838;2023-04-10T07:58:20;3.10;;;0.35;;
55879;SDS011;41802;51.564;-1.838;2023-04-10T08:00:48;1.83;;;0.30;;
55879;SDS011;41802;51.564;-1.838;2023-04-10T08:03:16;2.17;;;0.40;;
55879;SDS011;41802;51.564;-1.838;2023-04-10T08:05:46;1.75;;;0.30;;
55879;SDS011;41802;51.564;-1.838;2023-04-10T08:08:15;2.35;;;0.45;;
55879;SDS011;41802;51.564;-1.838;2023-04-10T08:10:42;2.28;;;0.55;;
55879;SDS011;41802;51.564;-1.838;2023-04-10T08:13:10;1.60;;;0.20;;
55879;SDS011;41802;51.564;-1.838;2023-04-10T08:15:38;2.60;;;0.50;;
55879;SDS011;41802;51.564;-1.838;2023-04-10T08:18:05;1.85;;;0.40;;
55879;SDS011;41802;51.564;-1.838;2023-04-10T08:20:33;1.98;;;0.40;;
55879;SDS011;41802;51.564;-1.838;2023-04-10T08:23:04;2.13;;;0.50;;
55879;SDS011;41802;51.564;-1.838;2023-04-10T08:25:38;2.73;;;0.50;;
55879;SDS011;41802;51.564;-1.838;2023-04-10T08:28:05;2.00;;;0.40;;
55879;SDS011;41802;51.564;-1.838;2023-04-10T08:30:33;2.10;;;0.40;;
55879;SDS011;41802;51.564;-1.838;2023-04-10T08:33:01;2.22;;;0.50;;
55879;SDS011;41802;51.564;-1.838;2023-04-10T08:35:30;2.28;;;0.50;;
55879;SDS011;41802;51.564;-1.838;2023-04-10T08:37:58;2.87;;;0.60;;
55879;SDS011;41802;51.564;-1.838;2023-04-10T08:40:42;2.70;;;0.50;;
55879;SDS011;41802;51.564;-1.838;2023-04-10T08:43:15;2.70;;;0.57;;
55879;SDS011;41802;51.564;-1.838;2023-04-10T08:45:43;3.88;;;0.60;;
55879;SDS011;41802;51.564;-1.838;2023-04-10T08:48:11;2.53;;;0.68;;
55879;SDS011;41802;51.564;-1.838;2023-04-10T08:50:40;3.33;;;0.80;;
55879;SDS011;41802;51.564;-1.838;2023-04-10T08:53:09;3.08;;;0.70;;
55879;SDS011;41802;51.564;-1.838;2023-04-10T08:55:37;2.25;;;0.40;;
55879;SDS011;41802;51.564;-1.838;2023-04-10T08:58:06;4.47;;;0.70;;
55879;SDS011;41802;51.564;-1.838;2023-04-10T09:00:34;2.70;;;0.68;;
55879;SDS011;41802;51.564;-1.838;2023-04-10T09:03:03;2.67;;;0.70;;
55879;SDS011;41802;51.564;-1.838;2023-04-10T09:05:34;2.05;;;0.40;;
55879;SDS011;41802;51.564;-1.838;2023-04-10T09:08:02;3.05;;;0.40;;
55879;SDS011;41802;51.564;-1.838;2023-04-10T09:10:29;2.53;;;0.40;;
55879;SDS011;41802;51.564;-1.838;2023-04-10T09:12:57;3.95;;;0.63;;
55879;SDS011;41802;51.564;-1.838;2023-04-10T09:15:27;5.20;;;0.97;;
55879;SDS011;41802;51.564;-1.838;2023-04-10T09:17:55;3.67;;;0.60;;
55879;SDS011;41802;51.564;-1.838;2023-04-10T09:20:24;3.80;;;0.50;;
55879;SDS011;41802;51.564;-1.838;2023-04-10T09:22:52;4.80;;;1.00;;
55879;SDS011;41802;51.564;-1.838;2023-04-10T09:25:32;6.65;;;0.82;;
55879;SDS011;41802;51.564;-1.838;2023-04-10T09:28:01;5.97;;;1.00;;
55879;SDS011;41802;51.564;-1.838;2023-04-10T09:30:34;6.35;;;0.60;;
55879;SDS011;41802;51.564;-1.838;2023-04-10T09:33:02;4.13;;;0.70;;
55879;SDS011;41802;51.564;-1.838;2023-04-10T09:35:36;3.50;;;0.50;;
55879;SDS011;41802;51.564;-1.838;2023-04-10T09:38:15;3.00;;;0.70;;
55879;SDS011;41802;51.564;-1.838;2023-04-10T09:40:47;3.40;;;0.70;;
55879;SDS011;41802;51.564;-1.838;2023-04-10T09:43:19;5.68;;;0.57;;
55879;SDS011;41802;51.564;-1.838;2023-04-10T09:45:49;4.65;;;0.98;;
55879;SDS011;41802;51.564;-1.838;2023-04-10T09:48:17;4.07;;;0.63;;
55879;SDS011;41802;51.564;-1.838;2023-04-10T09:50:45;2.75;;;0.70;;
55879;SDS011;41802;51.564;-1.838;2023-04-10T09:53:13;3.03;;;0.50;;
55879;SDS011;41802;51.564;-1.838;2023-04-10T09:55:42;7.30;;;0.77;;
55879;SDS011;41802;51.564;-1.838;2023-04-10T09:58:10;4.82;;;0.50;;
55879;SDS011;41802;51.564;-1.838;2023-04-10T10:00:38;3.50;;;0.73;;
55879;SDS011;41802;51.564;-1.838;2023-04-10T10:03:08;5.20;;;0.83;;
55879;SDS011;41802;51.564;-1.838;2023-04-10T10:05:38;3.90;;;0.55;;
55879;SDS011;41802;51.564;-1.838;2023-04-10T10:08:06;4.15;;;0.80;;
55879;SDS011;41802;51.564;-1.838;2023-04-10T10:10:35;4.68;;;0.80;;
55879;SDS011;41802;51.564;-1.838;2023-04-10T10:13:10;5.50;;;0.63;;
55879;SDS011;41802;51.564;-1.838;2023-04-10T10:15:43;4.03;;;0.60;;
55879;SDS011;41802;51.564;-1.838;2023-04-10T10:18:16;4.03;;;0.80;;
55879;SDS011;41802;51.564;-1.838;2023-04-10T10:20:46;6.43;;;0.85;;
55879;SDS011;41802;51.564;-1.838;2023-04-10T10:23:15;4.80;;;0.70;;
55879;SDS011;41802;51.564;-1.838;2023-04-10T10:25:43;4.03;;;1.00;;
55879;SDS011;41802;51.564;-1.838;2023-04-10T10:28:12;2.47;;;0.50;;
55879;SDS011;41802;51.564;-1.838;2023-04-10T10:30:40;8.07;;;1.20;;
55879;SDS011;41802;51.564;-1.838;2023-04-10T10:33:08;4.25;;;0.93;;
55879;SDS011;41802;51.564;-1.838;2023-04-10T10:35:38;9.85;;;1.08;;
55879;SDS011;41802;51.564;-1.838;2023-04-10T10:38:06;8.73;;;1.13;;
55879;SDS011;41802;51.564;-1.838;2023-04-10T10:40:37;6.35;;;0.90;;
55879;SDS011;41802;51.564;-1.838;2023-04-10T10:43:09;4.47;;;1.00;;
55879;SDS011;41802;51.564;-1.838;2023-04-10T10:45:40;3.80;;;0.80;;
55879;SDS011;41802;51.564;-1.838;2023-04-10T10:48:10;5.63;;;0.82;;
55879;SDS011;41802;51.564;-1.838;2023-04-10T10:50:52;6.87;;;0.80;;
55879;SDS011;41802;51.564;-1.838;2023-04-10T10:53:35;7.03;;;0.88;;
55879;SDS011;41802;51.564;-1.838;2023-04-10T10:58:54;5.38;;;1.00;;
55879;SDS011;41802;51.564;-1.838;2023-04-10T11:01:22;5.45;;;0.57;;
55879;SDS011;41802;51.564;-1.838;2023-04-10T11:03:50;4.93;;;0.67;;
55879;SDS011;41802;51.564;-1.838;2023-04-10T11:06:20;6.13;;;1.00;;
55879;SDS011;41802;51.564;-1.838;2023-04-10T11:08:48;5.88;;;0.73;;
55879;SDS011;41802;51.564;-1.838;2023-04-10T11:11:19;8.32;;;0.93;;
55879;SDS011;41802;51.564;-1.838;2023-04-10T11:16:42;5.13;;;0.70;;
55879;SDS011;41802;51.564;-1.838;2023-04-10T11:19:10;9.43;;;0.98;;
55879;SDS011;41802;51.564;-1.838;2023-04-10T11:22:02;10.13;;;1.20;;
55879;SDS011;41802;51.564;-1.838;2023-04-10T11:30:28;6.60;;;0.90;;
55879;SDS011;41802;51.564;-1.838;2023-04-10T11:32:56;5.20;;;0.63;;
55879;SDS011;41802;51.564;-1.838;2023-04-10T11:35:26;5.65;;;0.75;;
55879;SDS011;41802;51.564;-1.838;2023-04-10T11:38:08;3.50;;;0.57;;
55879;SDS011;41802;51.564;-1.838;2023-04-10T11:43:19;4.43;;;0.70;;
55879;SDS011;41802;51.564;-1.838;2023-04-10T11:45:46;5.68;;;0.60;;
55879;SDS011;41802;51.564;-1.838;2023-04-10T11:48:14;4.80;;;0.70;;
55879;SDS011;41802;51.564;-1.838;2023-04-10T11:50:42;4.65;;;0.65;;
55879;SDS011;41802;51.564;-1.838;2023-04-10T11:53:19;4.07;;;0.77;;
55879;SDS011;41802;51.564;-1.838;2023-04-10T11:55:47;8.23;;;1.00;;
55879;SDS011;41802;51.564;-1.838;2023-04-10T11:58:22;6.20;;;1.05;;
55879;SDS011;41802;51.564;-1.838;2023-04-10T12:00:57;4.80;;;1.13;;
55879;SDS011;41802;51.564;-1.838;2023-04-10T12:03:34;7.43;;;0.88;;
55879;SDS011;41802;51.564;-1.838;2023-04-10T12:06:03;4.97;;;0.90;;
55879;SDS011;41802;51.564;-1.838;2023-04-10T12:08:34;6.67;;;0.90;;
55879;SDS011;41802;51.564;-1.838;2023-04-10T12:11:02;5.05;;;0.65;;
55879;SDS011;41802;51.564;-1.838;2023-04-10T12:13:30;7.07;;;1.20;;
55879;SDS011;41802;51.564;-1.838;2023-04-10T12:15:58;4.53;;;1.17;;
55879;SDS011;41802;51.564;-1.838;2023-04-10T12:18:27;4.25;;;0.77;;
55879;SDS011;41802;51.564;-1.838;2023-04-10T12:20:55;9.67;;;1.27;;
55879;SDS011;41802;51.564;-1.838;2023-04-10T12:23:24;5.80;;;0.70;;
55879;SDS011;41802;51.564;-1.838;2023-04-10T12:26:06;4.05;;;0.60;;
55879;SDS011;41802;51.564;-1.838;2023-04-10T12:28:34;3.92;;;0.70;;
55879;SDS011;41802;51.564;-1.838;2023-04-10T12:31:02;5.22;;;0.40;;
55879;SDS011;41802;51.564;-1.838;2023-04-10T12:33:30;5.93;;;0.70;;
55879;SDS011;41802;51.564;-1.838;2023-04-10T12:35:58;9.38;;;0.70;;
55879;SDS011;41802;51.564;-1.838;2023-04-10T12:38:39;5.18;;;1.08;;
55879;SDS011;41802;51.564;-1.838;2023-04-10T12:41:09;3.60;;;0.80;;
55879;SDS011;41802;51.564;-1.838;2023-04-10T12:43:41;3.20;;;0.50;;
55879;SDS011;41802;51.564;-1.838;2023-04-10T12:46:19;4.53;;;0.60;;
55879;SDS011;41802;51.564;-1.838;2023-04-10T12:48:48;4.05;;;0.52;;
55879;SDS011;41802;51.564;-1.838;2023-04-10T12:51:16;3.88;;;0.60;;
55879;SDS011;41802;51.564;-1.838;2023-04-10T12:53:44;5.35;;;0.98;;
55879;SDS011;41802;51.564;-1.838;2023-04-10T12:56:15;4.30;;;0.60;;
55879;SDS011;41802;51.564;-1.838;2023-04-10T12:58:43;2.60;;;0.40;;
55879;SDS011;41802;51.564;-1.838;2023-04-10T13:01:11;3.95;;;0.50;;
55879;SDS011;41802;51.564;-1.838;2023-04-10T13:03:40;3.15;;;0.40;;
55879;SDS011;41802;51.564;-1.838;2023-04-10T13:06:08;3.75;;;0.47;;
55879;SDS011;41802;51.564;-1.838;2023-04-10T13:08:36;4.75;;;1.10;;
55879;SDS011;41802;51.564;-1.838;2023-04-10T13:11:03;3.87;;;0.60;;
55879;SDS011;41802;51.564;-1.838;2023-04-10T13:13:33;6.35;;;0.73;;
55879;SDS011;41802;51.564;-1.838;2023-04-10T13:16:01;7.38;;;0.98;;
55879;SDS011;41802;51.564;-1.838;2023-04-10T13:18:29;3.60;;;0.77;;
55879;SDS011;41802;51.564;-1.838;2023-04-10T13:20:57;5.18;;;0.95;;
55879;SDS011;41802;51.564;-1.838;2023-04-10T13:23:25;9.87;;;0.90;;
55879;SDS011;41802;51.564;-1.838;2023-04-10T13:25:54;4.50;;;0.57;;
55879;SDS011;41802;51.564;-1.838;2023-04-10T13:28:24;3.67;;;0.40;;
55879;SDS011;41802;51.564;-1.838;2023-04-10T13:30:53;4.20;;;0.73;;
55879;SDS011;41802;51.564;-1.838;2023-04-10T13:33:21;4.00;;;0.63;;
55879;SDS011;41802;51.564;-1.838;2023-04-10T13:35:52;3.75;;;0.68;;
55879;SDS011;41802;51.564;-1.838;2023-04-10T13:38:20;4.07;;;0.67;;
55879;SDS011;41802;51.564;-1.838;2023-04-10T13:40:48;3.67;;;0.60;;
55879;SDS011;41802;51.564;-1.838;2023-04-10T13:43:16;3.33;;;0.50;;
55879;SDS011;41802;51.564;-1.838;2023-04-10T13:45:44;4.85;;;0.50;;
55879;SDS011;41802;51.564;-1.838;2023-04-10T13:48:13;6.78;;;0.90;;
55879;SDS011;41802;51.564;-1.838;2023-04-10T13:50:44;9.37;;;1.00;;
55879;SDS011;41802;51.564;-1.838;2023-04-10T13:53:12;5.75;;;1.08;;
55879;SDS011;41802;51.564;-1.838;2023-04-10T13:55:47;6.84;;;0.66;;
55879;SDS011;41802;51.564;-1.838;2023-04-10T13:58:17;6.03;;;0.70;;
55879;SDS011;41802;51.564;-1.838;2023-04-10T14:00:44;4.90;;;0.88;;
55879;SDS011;41802;51.564;-1.838;2023-04-10T14:03:14;4.47;;;0.70;;
55879;SDS011;41802;51.564;-1.838;2023-04-10T14:05:41;5.40;;;0.75;;
55879;SDS011;41802;51.564;-1.838;2023-04-10T14:08:10;7.45;;;0.95;;
55879;SDS011;41802;51.564;-1.838;2023-04-10T14:10:41;4.43;;;0.75;;
55879;SDS011;41802;51.564;-1.838;2023-04-10T14:13:09;5.57;;;0.88;;
55879;SDS011;41802;51.564;-1.838;2023-04-10T14:15:36;4.77;;;0.40;;
55879;SDS011;41802;51.564;-1.838;2023-04-10T14:18:04;3.83;;;0.60;;
55879;SDS011;41802;51.564;-1.838;2023-04-10T14:20:33;5.47;;;0.70;;
55879;SDS011;41802;51.564;-1.838;2023-04-10T14:23:01;3.40;;;0.40;;
55879;SDS011;41802;51.564;-1.838;2023-04-10T14:25:29;3.05;;;0.40;;
55879;SDS011;41802;51.564;-1.838;2023-04-10T14:27:58;2.97;;;0.50;;
55879;SDS011;41802;51.564;-1.838;2023-04-10T14:30:26;5.03;;;0.60;;
55879;SDS011;41802;51.564;-1.838;2023-04-10T14:32:56;4.30;;;0.80;;
55879;SDS011;41802;51.564;-1.838;2023-04-10T14:35:24;4.30;;;0.70;;
55879;SDS011;41802;51.564;-1.838;2023-04-10T14:37:53;4.43;;;0.68;;
55879;SDS011;41802;51.564;-1.838;2023-04-10T14:40:20;4.17;;;0.40;;
55879;SDS011;41802;51.564;-1.838;2023-04-10T14:42:49;4.07;;;0.70;;
55879;SDS011;41802;51.564;-1.838;2023-04-10T14:45:18;5.28;;;0.80;;
55879;SDS011;41802;51.564;-1.838;2023-04-10T14:47:45;5.68;;;0.63;;
55879;SDS011;41802;51.564;-1.838;2023-04-10T14:50:13;6.57;;;0.95;;
55879;SDS011;41802;51.564;-1.838;2023-04-10T14:52:41;4.83;;;0.63;;
55879;SDS011;41802;51.564;-1.838;2023-04-10T14:55:10;4.90;;;0.85;;